createdAt,value
2022-12-18T00:01:07.354Z,87.55
2022-12-18T00:06:02.391Z,86.76
2022-12-18T00:11:00.540Z,85.95
2022-12-18T00:15:54.426Z,86.01
2022-12-18T00:20:49.935Z,86.25
2022-12-18T00:25:45.640Z,86.66
2022-12-18T00:30:38.869Z,86.67
2022-12-18T00:35:32.027Z,86.10
2022-12-18T00:40:25.353Z,86.00
2022-12-18T00:45:22.329Z,85.49
2022-12-18T00:50:15.617Z,85.38
2022-12-18T00:55:09.686Z,85.37
2022-12-18T01:00:02.971Z,85.29
2022-12-18T01:04:57.776Z,85.35
2022-12-18T01:09:51.033Z,85.71
2022-12-18T01:14:44.292Z,85.85
2022-12-18T01:19:40.119Z,86.11
2022-12-18T01:24:38.489Z,85.98
2022-12-18T01:29:31.979Z,85.57
2022-12-18T01:34:25.287Z,85.05
2022-12-18T01:39:18.530Z,84.43
2022-12-18T01:44:45.127Z,83.79
2022-12-18T01:49:39.882Z,83.53
2022-12-18T01:54:33.218Z,83.27
2022-12-18T01:59:26.788Z,82.88
2022-12-18T02:04:23.761Z,83.10
2022-12-18T02:09:23.635Z,82.76
2022-12-18T02:14:25.872Z,82.96
2022-12-18T02:19:45.413Z,82.41
2022-12-18T02:24:49.546Z,82.94
2022-12-18T02:29:54.342Z,82.72
2022-12-18T02:34:54.874Z,83.04
2022-12-18T02:39:51.493Z,82.97
2022-12-18T02:44:47.877Z,83.08
2022-12-18T02:49:56.064Z,83.12
2022-12-18T02:55:02.345Z,82.99
2022-12-18T03:00:03.766Z,82.84
2022-12-18T03:05:00.365Z,82.32
2022-12-18T03:09:56.717Z,83.60
2022-12-18T03:14:53.121Z,84.16
2022-12-18T03:19:50.483Z,84.45
2022-12-18T03:24:44.551Z,84.58
2022-12-18T03:29:41.350Z,84.43
2022-12-18T03:34:39.269Z,84.38
2022-12-18T03:39:37.541Z,84.22
2022-12-18T03:44:36.708Z,84.17
2022-12-18T03:49:36.750Z,84.31
2022-12-18T03:54:33.574Z,84.24
2022-12-18T03:59:37.584Z,84.54
2022-12-18T04:04:33.349Z,84.67
2022-12-18T04:09:30.655Z,84.26
2022-12-18T04:14:24.848Z,84.44
2022-12-18T04:19:23.331Z,84.61
2022-12-18T04:24:19.219Z,84.63
2022-12-18T04:29:21.883Z,84.63
2022-12-18T04:34:17.082Z,84.91
2022-12-18T04:39:20.446Z,85.32
2022-12-18T04:44:16.362Z,85.23
2022-12-18T04:49:11.530Z,85.27
2022-12-18T04:54:04.887Z,84.66
2022-12-18T04:58:59.513Z,84.52
2022-12-18T05:03:53.616Z,84.57
2022-12-18T05:08:46.798Z,84.51
2022-12-18T05:13:40.990Z,84.43
2022-12-18T05:18:36.178Z,84.86
2022-12-18T05:23:32.480Z,85.07
2022-12-18T05:28:27.017Z,85.10
2022-12-18T05:33:20.982Z,84.97
2022-12-18T05:38:15.682Z,84.99
2022-12-18T05:43:08.851Z,85.00
2022-12-18T05:48:02.157Z,84.46
2022-12-18T05:52:55.334Z,84.50
2022-12-18T05:57:50.385Z,84.91
2022-12-18T06:02:43.741Z,84.95
2022-12-18T06:07:36.984Z,85.16
2022-12-18T06:12:30.238Z,85.45
2022-12-18T06:17:24.851Z,85.23
2022-12-18T06:22:17.971Z,85.27
2022-12-18T06:27:11.098Z,85.62
2022-12-18T06:32:04.340Z,85.62
2022-12-18T06:36:58.915Z,85.64
2022-12-18T06:41:52.026Z,85.16
2022-12-18T06:46:45.210Z,85.12
2022-12-18T06:51:38.487Z,85.39
2022-12-18T06:56:33.123Z,85.21
2022-12-18T07:01:26.385Z,85.17
2022-12-18T07:06:22.807Z,85.16
2022-12-18T07:11:16.498Z,84.46
2022-12-18T07:16:19.650Z,84.83
2022-12-18T07:21:20.202Z,84.53
2022-12-18T07:26:16.252Z,83.89
2022-12-18T07:31:12.437Z,84.21
2022-12-18T07:36:10.175Z,83.81
2022-12-18T07:41:04.064Z,82.91
2022-12-18T07:46:01.606Z,82.96
2022-12-18T07:51:00.020Z,83.98
2022-12-18T07:56:25.485Z,83.47
2022-12-18T08:01:12.617Z,81.96
2022-12-18T08:06:11.764Z,81.49
2022-12-18T08:11:06.976Z,80.75
2022-12-18T08:16:04.223Z,79.55
2022-12-18T08:20:58.179Z,78.92
2022-12-18T08:25:53.500Z,78.29
2022-12-18T08:30:47.252Z,79.46
2022-12-18T08:35:45.614Z,78.92
2022-12-18T08:40:39.631Z,77.73
2022-12-18T08:45:34.310Z,78.04
2022-12-18T08:50:27.685Z,76.08
2022-12-18T08:55:21.247Z,75.83
2022-12-18T09:00:16.811Z,76.23
2022-12-18T09:05:12.060Z,77.50
2022-12-18T09:10:06.256Z,77.83
2022-12-18T09:14:59.490Z,77.75
2022-12-18T09:19:53.279Z,77.30
2022-12-18T09:24:48.234Z,76.90
2022-12-18T09:29:41.473Z,78.15
2022-12-18T09:34:35.015Z,77.02
2022-12-18T09:39:28.203Z,76.40
2022-12-18T09:44:27.680Z,75.76
2022-12-18T09:49:24.653Z,74.95
2022-12-18T09:54:28.329Z,74.10
2022-12-18T09:59:28.820Z,73.72
2022-12-18T10:04:22.182Z,73.43
2022-12-18T10:09:23.737Z,74.43
2022-12-18T10:14:29.295Z,74.12
2022-12-18T10:19:50.510Z,74.59
2022-12-18T10:24:52.615Z,74.57
2022-12-18T10:29:48.455Z,75.46
2022-12-18T10:34:41.921Z,74.49
2022-12-18T10:39:35.517Z,75.29
2022-12-18T10:44:29.152Z,75.36
2022-12-18T10:49:28.164Z,74.87
2022-12-18T10:54:24.864Z,74.95
2022-12-18T10:59:19.858Z,75.99
2022-12-18T11:04:37.481Z,76.35
2022-12-18T11:09:32.998Z,76.48
2022-12-18T11:14:28.587Z,75.27
2022-12-18T11:19:32.386Z,76.26
2022-12-18T11:24:32.179Z,76.35
2022-12-18T11:29:35.127Z,76.14
2022-12-18T11:34:31.491Z,75.35
2022-12-18T11:39:34.313Z,76.75
2022-12-18T11:44:33.780Z,76.33
2022-12-18T11:49:31.304Z,75.88
2022-12-18T11:54:24.644Z,75.09
2022-12-18T11:59:29.558Z,74.43
2022-12-18T12:04:47.329Z,74.89
2022-12-18T12:09:48.786Z,74.87
2022-12-18T12:14:55.222Z,75.97
2022-12-18T12:20:00.305Z,75.38
2022-12-18T12:25:05.973Z,74.57
2022-12-18T12:30:08.444Z,74.94
2022-12-18T12:35:19.144Z,74.48
2022-12-18T12:40:49.761Z,74.97
2022-12-18T12:45:41.257Z,74.99
2022-12-18T12:50:37.749Z,75.85
2022-12-18T12:55:32.115Z,74.64
2022-12-18T13:00:26.892Z,76.83
2022-12-18T13:05:28.318Z,76.19
2022-12-18T13:10:28.830Z,76.82
2022-12-18T13:15:25.057Z,76.65
2022-12-18T13:20:20.472Z,76.82
2022-12-18T13:25:33.702Z,76.21
2022-12-18T13:31:00.097Z,75.70
2022-12-18T13:36:03.249Z,76.38
2022-12-18T13:41:00.320Z,76.59
2022-12-18T13:46:03.900Z,77.13
2022-12-18T13:51:24.175Z,76.14
2022-12-18T13:56:36.395Z,76.63
2022-12-18T14:02:05.599Z,76.34
2022-12-18T14:07:13.657Z,77.10
2022-12-18T14:12:45.925Z,76.84
2022-12-18T14:17:45.050Z,77.14
2022-12-18T14:22:52.447Z,77.40
2022-12-18T14:28:00.698Z,76.88
2022-12-18T14:33:02.810Z,77.29
2022-12-18T14:37:56.180Z,77.23
2022-12-18T14:42:51.243Z,78.01
2022-12-18T14:47:46.201Z,78.06
2022-12-18T15:12:29.729Z,79.25
2022-12-18T15:25:45.817Z,78.90
2022-12-18T15:37:49.001Z,79.25
2022-12-18T15:43:32.864Z,80.28
2022-12-18T15:48:45.392Z,82.10
2022-12-18T15:53:53.885Z,83.23
2022-12-18T15:59:21.847Z,84.41
2022-12-18T16:04:24.919Z,85.84
2022-12-18T16:21:48.704Z,89.17
2022-12-18T16:27:48.644Z,89.64
2022-12-18T16:34:10.237Z,90.20
2022-12-18T16:46:00.200Z,89.69
2022-12-18T16:51:24.110Z,89.04
2022-12-18T16:58:07.616Z,88.25
2022-12-18T17:08:39.981Z,88.71
2022-12-18T17:14:16.054Z,88.89
2022-12-18T17:19:17.705Z,88.63
2022-12-18T17:24:11.354Z,88.51
2022-12-18T17:29:09.182Z,87.76
2022-12-18T17:34:33.362Z,86.62
2022-12-18T17:40:19.832Z,84.80
2022-12-18T17:46:10.502Z,82.21
2022-12-18T17:51:17.574Z,80.60
2022-12-18T17:56:25.903Z,78.67
2022-12-18T18:01:50.764Z,77.67
2022-12-18T18:13:49.313Z,74.76
2022-12-18T18:18:48.754Z,73.19
2022-12-18T18:23:46.624Z,71.75
2022-12-18T18:29:05.083Z,71.87
2022-12-18T18:34:03.008Z,71.40
2022-12-18T18:39:06.523Z,70.74
2022-12-18T18:44:12.839Z,70.75
2022-12-18T18:49:09.946Z,71.30
2022-12-18T18:54:10.358Z,71.57
2022-12-18T18:59:05.120Z,71.39
2022-12-18T19:04:29.071Z,71.02
2022-12-18T19:09:30.364Z,71.03
2022-12-18T19:14:45.704Z,71.33
2022-12-18T19:27:37.787Z,71.56
2022-12-18T19:39:12.753Z,72.17
2022-12-18T19:45:37.067Z,72.63
2022-12-18T19:50:32.409Z,73.42
2022-12-18T19:56:11.217Z,74.38
2022-12-18T20:01:48.900Z,76.57
2022-12-18T20:07:29.635Z,77.99
2022-12-18T20:13:11.034Z,79.07
2022-12-18T20:18:31.185Z,80.61
2022-12-18T20:23:30.008Z,80.77
2022-12-18T20:28:57.147Z,80.67
2022-12-18T20:34:06.146Z,81.63
2022-12-18T20:39:18.104Z,83.34
2022-12-18T20:44:36.032Z,84.87
2022-12-18T20:49:57.298Z,85.65
2022-12-18T21:01:17.109Z,86.41
2022-12-18T21:11:52.236Z,84.38
2022-12-18T21:16:51.328Z,83.26
2022-12-18T21:21:47.678Z,80.32
2022-12-18T21:32:29.884Z,76.14
2022-12-18T21:37:36.362Z,74.68
2022-12-18T21:42:50.796Z,74.06
2022-12-18T21:48:14.693Z,72.98
2022-12-18T21:53:09.626Z,72.79
2022-12-18T21:58:09.568Z,73.04
2022-12-18T22:03:17.471Z,72.36
2022-12-18T22:08:13.818Z,71.10
2022-12-18T22:13:17.016Z,70.82
2022-12-18T22:18:23.094Z,70.91
2022-12-18T22:23:29.190Z,71.37
2022-12-18T22:28:43.975Z,71.31
2022-12-18T22:33:46.777Z,71.20
2022-12-18T22:38:50.889Z,70.26
2022-12-18T22:44:31.882Z,70.38
2022-12-18T22:49:34.877Z,70.06
2022-12-18T22:55:02.281Z,69.81
2022-12-18T23:05:52.403Z,70.87
2022-12-18T23:10:56.185Z,70.84
2022-12-18T23:15:49.881Z,71.73
2022-12-18T23:20:47.951Z,71.79
2022-12-18T23:25:46.718Z,72.22
2022-12-18T23:30:42.977Z,72.46
2022-12-18T23:35:45.570Z,72.56
2022-12-18T23:40:39.007Z,73.07
2022-12-18T23:45:52.514Z,73.77
2022-12-18T23:50:49.233Z,74.31
2022-12-18T23:55:45.097Z,74.42
